Cook, Washington
Current Conditions -  °F | °C
As of 6:53 PM on Thursday 20 Nov 2014 (Local Time) from KDLS Reporting Station
Haze Haze  
Wind Chill: 34°   Ceiling: 8500
Heat Index: 34°   Visibility: 5mi
Dew Point: 29°   Wind: 0mph
Humidity: 82%   Direction: NA
Pressure: 30.09"   Gusts: NA
Location:  45.6752°N, 121.103°W
Report Text: KDLS 210253Z AUTO 00000KT 5SM HZ OVC085 01/M02 A3009 RMK AO2 SLP192 T00111017 53003
Loading
Personal Weather Stations






























Interactive Weather Map New forecast layout! Learn more

10-Day Weather Forecast

Advertisements
Track Severe Weather on mobile